Shirley P. Settoon — WDF9252 — position and weather

sailwx.info

Track history (hours):
 
Tides and Currents Weather Stations Pressure Air Temp Water Temp Dewpoint Dewpoint Depression Visibility Wind Speed Wind Dir Waves Ship Positions

Shirley P. Settoon

More information available from US FCC via Universal Licensing System and Coast Guard Vessel Documentation Center.

Last reported at 2014-Sep-30 21:33 UTC. Time now 2014-Sep-30 22:07 UTC.
Position N 30°02' W 090°37'.

Length 32 m.

Type: Towing. MMSI: 367503240.

Date/timePositionNaut miles runAvg speedWind from/ knotsBaromVisibWave heightAir tempDewpointWater temp
2014-Sep-30 21:33N 30°02' W 090°37'4 4.3
2014-Sep-30 20:33N 30°03' W 090°32'8 0.7
2014-Sep-30 09:29N 29°59' W 090°24'0 0.0
2014-Sep-30 08:33N 29°59' W 090°24'0 0.0
2014-Sep-30 07:33N 29°59' W 090°24'0 0.0
2014-Sep-30 06:33N 29°59' W 090°24'0 0.0
2014-Sep-30 05:33N 29°59' W 090°24'0 0.0
2014-Sep-30 04:26N 29°59' W 090°24'0 0.0
2014-Sep-30 03:28N 29°59' W 090°24'0 0.0
2014-Sep-30 02:08N 29°59' W 090°24'0 0.0
2014-Sep-30 01:30N 29°59' W 090°24'0 0.0
2014-Sep-29 12:33N 29°59' W 090°24'0 0.0
2014-Sep-29 11:33N 29°59' W 090°24'  
2014-Sep-25 12:33N 29°56' W 090°22'6 6.1
2014-Sep-25 11:33N 29°60' W 090°28'6 5.5
2014-Sep-25 10:33N 30°03' W 090°33'6 6.3
2014-Sep-25 09:33N 30°03' W 090°40'7 6.8
2014-Sep-25 08:31N 29°60' W 090°48'  
Track history (hours):
 
Tides and Currents Weather Stations Pressure Air Temp Water Temp Dewpoint Dewpoint Depression Visibility Wind Speed Wind Dir Waves Ship Positions

Shirley P. Settoon

More information available from US FCC via Universal Licensing System and Coast Guard Vessel Documentation Center.

Last reported at 2014-Sep-30 21:33 UTC. Time now 2014-Sep-30 22:07 UTC.
Position N 30°02' W 090°37'.

Length 32 m.

Type: Towing. MMSI: 367503240.

Date/timePositionNaut miles runAvg speedWind from/ knotsBaromVisibWave heightAir tempDewpointWater temp
2014-Sep-30 21:33N 30°02' W 090°37'4 4.3
2014-Sep-30 20:33N 30°03' W 090°32'8 0.7
2014-Sep-30 09:29N 29°59' W 090°24'0 0.0
2014-Sep-30 08:33N 29°59' W 090°24'0 0.0
2014-Sep-30 07:33N 29°59' W 090°24'0 0.0
2014-Sep-30 06:33N 29°59' W 090°24'0 0.0
2014-Sep-30 05:33N 29°59' W 090°24'0 0.0
2014-Sep-30 04:26N 29°59' W 090°24'0 0.0
2014-Sep-30 03:28N 29°59' W 090°24'0 0.0
2014-Sep-30 02:08N 29°59' W 090°24'0 0.0
2014-Sep-30 01:30N 29°59' W 090°24'0 0.0
2014-Sep-29 12:33N 29°59' W 090°24'0 0.0
2014-Sep-29 11:33N 29°59' W 090°24'  
2014-Sep-25 12:33N 29°56' W 090°22'6 6.1
2014-Sep-25 11:33N 29°60' W 090°28'6 5.5
2014-Sep-25 10:33N 30°03' W 090°33'6 6.3
2014-Sep-25 09:33N 30°03' W 090°40'7 6.8
2014-Sep-25 08:31N 29°60' W 090°48'  

Dump ship's entire track history